메인 페이지
METAR-TAF:

METAR-TAF

공항 :

벨렝, 파라, 브라질

위도: 01-23S, 경도: 048-29W, 고도: 16m

현재 날씨관측

예보는 58분 전, 18:00시(UTC)에 발표되었습니다.
남동8kt
온도 26°C
습도 74%
기압 1010 hPa
시정 10km 이상
고도 3000ft 상공 구름 보통
고도 3300ft 상공 구름 조금, 타워링 적운.
고도 10000ft 상공 구름 많음

METAR: SBBE 161800Z 13008KT 9999 SCT030 FEW033TCU BKN100 26/21 Q1010

시각: 15:58 (18:58 UTC)

예보

예보는 2 시간 58분 전, 16:00시(UTC)에 발표되었습니다.
예보 대상 시간: 16일 18시부터 17일 18시까지 (UTC)
북동10kt
시정 10km 이상
고도 3000ft 상공 구름 보통
고도 3500ft 상공 구름 조금, 타워링 적운.
확률 30% :
일시적
16일 18시부터 16일 21시까지 (UTC)
시정: 4000m
고도 1000ft 상공 구름 많음
고도 2500ft 상공 구름 조금, 적란운.
뇌우, 비
전환 중
16일 22시부터 16일 24시까지 (UTC)
동북동8kt
시정 10km 이상
1500m 미만 상공 구름 및 적란운 없음
전환 중
17일 08시부터 17일 10시까지 (UTC)
동남동5kt
고도 2000ft 상공 구름 보통
전환 중
17일 15시부터 17일 17시까지 (UTC)
10kt
고도 2500ft 상공 구름 많음
고도 3000ft 상공 구름 조금, 타워링 적운.

TAF: SBBE 161600Z 1618/1718 04010KT 9999 SCT030 FEW035TCU TN24/1700Z TX32/1717Z PROB30 TEMPO 1618/1621 4000 TSRA BKN010 FEW025CB BECMG 1622/1624 06008KT CAVOK BECMG 1708/1710 12005KT SCT020 BECMG 1715/1717 36010KT BKN025 FEW030TCU RMK PCQ

4,000개 이상의 공항 관측 자료 및 예보 (METAR 및 TAF 보고).

지도상에서 검색 가능한 기상관측소가 노란 점과 빨간 점으로 표시되어 있습니다.

기상관측소 명을 보려면 표시 위로 마우스를 이동하세요.

날씨 관측과 예보를 보려면 클릭하세요.

지도 변경 : 확대하려면 엑스 표시가 있는 녹색 버튼, 축소하려면 빼기 표시가 있는 녹색 버튼, 다음 페이지의 지도를 보려면 녹색 화살표를 클릭하세요.


METAR-TAF: